Time;durP1;ratioP1;P1;durP2;ratioP2;P2;SDS_P1;SDS_P2;PMS_P1;PMS_P2;Temp;Humidity;BMP_temperature;BMP_pressure;BME280_temperature;BME280_humidity;BME280_pressure;Samples;Min_cycle;Max_cycle;Signal;HPM_P1;HPM_P2
2023/10/13 00:00:40;;;;;;;159.77;116.73;;;;;12.80;97135.00;;;;5098088;28;20206;-84
2023/10/13 00:03:31;;;;;;;155.90;111.70;;;;;13.40;97140.00;;;;5088524;28;20204;-86
2023/10/13 00:06:20;;;;;;;154.93;109.60;;;;;13.90;97137.00;;;;5090605;28;20216;-84
2023/10/13 00:09:14;;;;;;;160.43;115.10;;;;;13.80;97142.00;;;;5101027;28;20207;-86
2023/10/13 00:12:08;;;;;;;156.63;110.57;;;;;13.10;97137.00;;;;5105799;28;20220;-84
2023/10/13 00:15:03;;;;;;;165.93;118.53;;;;;13.70;97136.00;;;;5108006;28;20211;-84
2023/10/13 00:17:52;;;;;;;161.07;115.90;;;;;13.60;97123.00;;;;5097395;28;20215;-84
2023/10/13 00:20:48;;;;;;;166.10;114.97;;;;;13.50;97130.00;;;;5094518;28;20208;-83
2023/10/13 00:23:38;;;;;;;160.73;111.80;;;;;13.10;97126.00;;;;5103742;28;20216;-84
2023/10/13 00:26:29;;;;;;;162.87;113.40;;;;;13.60;97128.00;;;;5094575;28;20242;-83
2023/10/13 00:29:28;;;;;;;159.63;111.63;;;;;13.40;97129.00;;;;5104383;28;20232;-83
2023/10/13 00:32:23;;;;;;;158.03;109.73;;;;;13.20;97127.00;;;;5103915;28;20207;-84
2023/10/13 00:35:15;;;;;;;164.10;111.37;;;;;13.20;97121.00;;;;5090177;28;20200;-84
2023/10/13 00:38:12;;;;;;;159.67;107.80;;;;;13.20;97126.00;;;;5096960;28;20377;-84
2023/10/13 00:41:13;;;;;;;167.83;112.50;;;;;13.00;97115.00;;;;5101216;28;20207;-85
2023/10/13 00:44:06;;;;;;;177.97;117.40;;;;;12.80;97122.00;;;;5093708;28;20207;-84
2023/10/13 00:46:56;;;;;;;187.93;117.53;;;;;12.70;97101.00;;;;5097828;28;20224;-85
2023/10/13 00:49:47;;;;;;;189.13;118.67;;;;;12.50;97101.00;;;;5094181;28;20212;-84
2023/10/13 00:52:39;;;;;;;175.97;108.83;;;;;13.20;97111.00;;;;5097596;28;20199;-85
2023/10/13 00:55:29;;;;;;;183.57;111.47;;;;;13.50;97110.00;;;;5104449;28;20239;-85
2023/10/13 00:58:22;;;;;;;187.70;115.77;;;;;13.30;97105.00;;;;5102932;28;20266;-83
2023/10/13 01:01:18;;;;;;;183.87;113.40;;;;;13.00;97106.00;;;;5096735;28;20200;-84
2023/10/13 01:04:11;;;;;;;185.70;112.63;;;;;12.90;97100.00;;;;5088086;28;20192;-84
2023/10/13 01:07:01;;;;;;;197.20;115.23;;;;;13.10;97103.00;;;;5098114;28;20283;-85
2023/10/13 01:09:49;;;;;;;208.07;119.47;;;;;12.90;97101.00;;;;5088828;28;20204;-85
2023/10/13 01:12:38;;;;;;;197.23;112.73;;;;;13.10;97110.00;;;;5089167;28;20199;-85
2023/10/13 01:15:30;;;;;;;216.13;118.60;;;;;12.90;97101.00;;;;5097818;28;20611;-83
2023/10/13 01:18:20;;;;;;;211.63;117.57;;;;;12.50;97095.00;;;;5098778;28;20218;-83
2023/10/13 01:21:10;;;;;;;224.33;119.07;;;;;13.00;97094.00;;;;5107455;28;20214;-85
2023/10/13 01:24:00;;;;;;;219.73;116.23;;;;;13.10;97090.00;;;;5091630;28;20199;-84
2023/10/13 01:26:51;;;;;;;239.00;121.90;;;;;13.00;97089.00;;;;5106140;28;20234;-84
2023/10/13 01:29:40;;;;;;;253.73;124.37;;;;;12.80;97086.00;;;;5105874;28;20652;-83
2023/10/13 01:32:29;;;;;;;262.67;122.83;;;;;12.70;97085.00;;;;5101110;28;20204;-85
2023/10/13 01:35:18;;;;;;;339.60;120.80;;;;;12.50;97086.00;;;;5076189;28;20257;-84
2023/10/13 01:38:08;;;;;;;328.57;116.40;;;;;12.60;97082.00;;;;5086614;28;20206;-86
2023/10/13 01:40:58;;;;;;;213.10;114.17;;;;;12.50;97081.00;;;;5092777;28;20203;-83
2023/10/13 01:43:48;;;;;;;200.47;112.10;;;;;11.90;97079.00;;;;5088744;28;20223;-84
2023/10/13 01:46:37;;;;;;;217.57;115.40;;;;;12.40;97086.00;;;;5087514;28;20262;-86
2023/10/13 01:49:25;;;;;;;220.80;114.63;;;;;12.70;97089.00;;;;5083877;28;20214;-85
2023/10/13 01:52:16;;;;;;;214.10;112.53;;;;;12.30;97085.00;;;;5076682;28;20569;-84
2023/10/13 01:55:07;;;;;;;209.97;110.73;;;;;12.40;97087.00;;;;5096767;28;20222;-85
2023/10/13 01:57:57;;;;;;;181.60;110.83;;;;;12.60;97088.00;;;;5103440;28;20213;-84
2023/10/13 02:00:47;;;;;;;191.07;114.67;;;;;12.70;97082.00;;;;5088471;28;20196;-86
2023/10/13 02:03:41;;;;;;;179.80;107.47;;;;;12.60;97089.00;;;;5088365;28;20262;-86
2023/10/13 02:06:32;;;;;;;153.40;102.60;;;;;12.90;97085.00;;;;5087439;28;20231;-84
2023/10/13 02:09:26;;;;;;;160.83;102.47;;;;;12.80;97085.00;;;;5098921;28;20207;-85
2023/10/13 02:12:15;;;;;;;156.03;104.83;;;;;13.30;97090.00;;;;5095901;28;20198;-83
2023/10/13 02:15:06;;;;;;;162.67;109.37;;;;;13.00;97087.00;;;;5098076;28;20210;-86
2023/10/13 02:17:54;;;;;;;175.37;111.87;;;;;12.80;97089.00;;;;5088006;28;20208;-86
2023/10/13 02:20:45;;;;;;;156.13;105.83;;;;;12.10;97099.00;;;;5090399;28;20596;-84
2023/10/13 02:23:38;;;;;;;162.43;105.20;;;;;12.10;97089.00;;;;5093500;28;20234;-86
2023/10/13 02:26:31;;;;;;;156.33;102.93;;;;;12.20;97087.00;;;;5093231;28;20227;-85
2023/10/13 02:29:20;;;;;;;163.60;103.47;;;;;12.20;97084.00;;;;5087825;28;20219;-85
2023/10/13 02:32:18;;;;;;;164.67;103.30;;;;;11.80;97077.00;;;;5091210;28;20199;-88
2023/10/13 02:35:08;;;;;;;183.27;107.63;;;;;11.50;97081.00;;;;5089303;28;20575;-86
2023/10/13 02:38:08;;;;;;;192.60;108.23;;;;;11.80;97082.00;;;;5092704;28;20580;-84
2023/10/13 02:41:05;;;;;;;199.73;109.70;;;;;12.30;97080.00;;;;5095717;28;20209;-84
2023/10/13 02:43:55;;;;;;;202.43;112.77;;;;;12.00;97084.00;;;;5084161;28;20227;-85
2023/10/13 02:46:44;;;;;;;216.03;114.70;;;;;12.10;97094.00;;;;5083526;28;20257;-84
2023/10/13 02:49:37;;;;;;;257.30;116.57;;;;;12.00;97080.00;;;;5080791;28;20204;-87
2023/10/13 02:52:26;;;;;;;341.13;113.37;;;;;12.10;97073.00;;;;5094375;28;20668;-84
2023/10/13 02:55:16;;;;;;;258.93;115.23;;;;;12.30;97076.00;;;;5096303;28;20203;-87
2023/10/13 02:58:05;;;;;;;326.37;110.97;;;;;12.30;97077.00;;;;5096906;28;20202;-84
2023/10/13 03:00:55;;;;;;;330.73;120.87;;;;;12.30;97088.00;;;;5091401;28;20735;-85
2023/10/13 03:03:47;;;;;;;334.50;116.23;;;;;12.00;97082.00;;;;5092351;28;20231;-83
2023/10/13 03:06:40;;;;;;;345.53;114.60;;;;;11.50;97065.00;;;;5087130;28;20738;-85
2023/10/13 03:09:28;;;;;;;327.57;112.60;;;;;11.70;97077.00;;;;5095800;28;20211;-85
2023/10/13 03:12:17;;;;;;;280.07;111.20;;;;;11.30;97067.00;;;;5097871;28;20196;-84
2023/10/13 03:15:15;;;;;;;287.73;115.57;;;;;11.50;97065.00;;;;5088301;28;20191;-85
2023/10/13 03:18:05;;;;;;;168.23;100.73;;;;;11.50;97069.00;;;;5093202;28;20204;-84
2023/10/13 03:20:57;;;;;;;130.80;93.23;;;;;12.00;97064.00;;;;5093849;28;20196;-85
2023/10/13 03:23:47;;;;;;;148.83;99.90;;;;;11.70;97077.00;;;;5078347;28;20579;-82
2023/10/13 03:26:37;;;;;;;142.50;96.40;;;;;11.30;97066.00;;;;5092973;28;20230;-83
2023/10/13 03:29:30;;;;;;;134.60;94.00;;;;;11.40;97071.00;;;;5090420;28;20206;-84
2023/10/13 03:32:20;;;;;;;103.13;86.03;;;;;11.10;97066.00;;;;5092940;28;20706;-84
2023/10/13 03:35:13;;;;;;;191.40;102.77;;;;;12.00;97064.00;;;;5085474;28;20748;-83
2023/10/13 03:38:02;;;;;;;57.27;52.53;;;;;12.30;97068.00;;;;5080805;28;20223;-84
2023/10/13 03:41:07;;;;;;;32.80;30.10;;;;;12.20;97071.00;;;;5085608;28;20199;-85
2023/10/13 03:44:08;;;;;;;38.37;35.23;;;;;11.60;97060.00;;;;5094637;28;20265;-84
2023/10/13 03:47:08;;;;;;;204.97;110.47;;;;;12.20;97074.00;;;;5081745;28;20223;-86
2023/10/13 03:50:15;;;;;;;87.13;78.00;;;;;12.70;97078.00;;;;5092076;28;20665;-84
2023/10/13 03:53:06;;;;;;;41.93;38.87;;;;;12.90;97079.00;;;;5087012;28;20199;-85
2023/10/13 03:56:08;;;;;;;45.13;41.67;;;;;12.80;97074.00;;;;5085396;28;20226;-85
2023/10/13 03:59:01;;;;;;;23.30;20.83;;;;;12.50;97078.00;;;;5092526;28;20267;-84
2023/10/13 04:01:59;;;;;;;25.97;23.30;;;;;12.70;97074.00;;;;5082538;28;20665;-87
2023/10/13 04:04:54;;;;;;;38.63;35.20;;;;;12.60;97070.00;;;;5097627;28;20223;-86
2023/10/13 04:08:44;;;;;;;26.70;24.83;;;;;12.10;97061.00;;;;5082843;28;20341;-85
2023/10/13 04:14:24;;;;;;;13.50;5.17;;;;;11.90;97074.00;;;;5093699;28;20196;-87
2023/10/13 04:17:14;;;;;;;9.07;4.30;;;;;12.40;97086.00;;;;5098513;28;20251;-85
2023/10/13 04:20:27;;;;;;;11.33;4.77;;;;;12.80;97080.00;;;;5092585;28;20213;-87
2023/10/13 04:23:22;;;;;;;10.63;4.27;;;;;13.00;97077.00;;;;5092123;28;20227;-86
2023/10/13 04:26:21;;;;;;;6.20;3.00;;;;;12.80;97074.00;;;;5097398;28;20211;-85
2023/10/13 04:29:27;;;;;;;9.87;3.87;;;;;12.40;97072.00;;;;5093718;28;20214;-85
2023/10/13 04:32:28;;;;;;;6.23;2.83;;;;;12.60;97080.00;;;;5097509;28;20195;-85
2023/10/13 04:35:24;;;;;;;11.17;4.23;;;;;12.90;97082.00;;;;5097586;28;20206;-86
2023/10/13 04:38:19;;;;;;;8.27;3.53;;;;;13.10;97088.00;;;;5096353;28;20195;-85
2023/10/13 04:41:22;;;;;;;7.80;3.17;;;;;12.60;97083.00;;;;5094920;28;20842;-84
2023/10/13 04:47:29;;;;;;;15.80;5.70;;;;;12.70;97080.00;;;;5096573;28;20525;-85
2023/10/13 04:50:27;;;;;;;14.70;5.40;;;;;12.60;97067.00;;;;5088480;28;20744;-85
2023/10/13 04:56:59;;;;;;;11.97;4.57;;;;;12.70;97081.00;;;;5104028;28;20226;-85
2023/10/13 05:03:30;;;;;;;12.53;4.43;;;;;12.30;97080.00;;;;5100320;28;20208;-84
2023/10/13 05:44:33;;;;;;;17.63;5.97;;;;;12.40;97090.00;;;;5088265;28;20231;-86
2023/10/13 05:50:49;;;;;;;12.53;4.67;;;;;13.90;97121.00;;;;5087996;28;20198;-85
2023/10/13 06:31:20;;;;;;;10.50;4.60;;;;;14.30;97160.00;;;;5098275;28;20190;-86
2023/10/13 06:34:15;;;;;;;8.33;3.67;;;;;14.30;97163.00;;;;5105835;28;20183;-84
2023/10/13 06:37:21;;;;;;;10.57;4.97;;;;;14.60;97160.00;;;;5105226;28;20227;-84
2023/10/13 06:40:22;;;;;;;11.53;4.77;;;;;15.00;97176.00;;;;5113395;28;20198;-85
2023/10/13 06:43:16;;;;;;;6.93;3.77;;;;;15.20;97174.00;;;;5104516;28;20224;-85
2023/10/13 06:46:05;;;;;;;12.07;5.20;;;;;14.60;97178.00;;;;5102588;28;20215;-85
2023/10/13 06:48:55;;;;;;;17.50;6.93;;;;;14.40;97169.00;;;;5102001;28;20210;-86
2023/10/13 06:51:46;;;;;;;10.63;5.03;;;;;15.10;97173.00;;;;5101390;28;20204;-86
2023/10/13 06:54:36;;;;;;;11.80;5.40;;;;;15.40;97178.00;;;;5106134;28;20668;-86
2023/10/13 06:57:26;;;;;;;18.77;8.20;;;;;15.50;97186.00;;;;5104017;28;20608;-86
2023/10/13 07:00:27;;;;;;;13.80;7.00;;;;;15.00;97184.00;;;;5104949;28;20596;-86
2023/10/13 07:03:18;;;;;;;9.63;5.03;;;;;14.90;97179.00;;;;5090095;28;20216;-83
2023/10/13 07:06:11;;;;;;;8.63;4.40;;;;;15.10;97181.00;;;;5094792;28;20243;-83
2023/10/13 07:09:04;;;;;;;17.10;7.50;;;;;15.40;97177.00;;;;5089701;28;20692;-83
2023/10/13 07:11:53;;;;;;;19.37;9.13;;;;;15.60;97175.00;;;;5094519;28;20201;-83
2023/10/13 07:14:51;;;;;;;14.20;6.57;;;;;15.80;97175.00;;;;5086937;28;20195;-83
2023/10/13 07:17:40;;;;;;;30.23;12.57;;;;;15.90;97187.00;;;;5080607;28;20199;-83
2023/10/13 07:20:34;;;;;;;15.57;9.13;;;;;16.30;97183.00;;;;5091611;28;20202;-84
2023/10/13 07:23:24;;;;;;;14.50;9.50;;;;;16.90;97187.00;;;;5082271;28;20211;-85
2023/10/13 07:26:14;;;;;;;14.53;10.10;;;;;16.90;97186.00;;;;5090868;28;20226;-84
2023/10/13 07:29:07;;;;;;;17.57;11.47;;;;;17.00;97193.00;;;;5090712;28;20206;-83
2023/10/13 07:31:58;;;;;;;15.13;13.60;;;;;17.40;97197.00;;;;5080934;28;20207;-83
2023/10/13 07:34:48;;;;;;;19.10;14.73;;;;;17.90;97204.00;;;;5099092;28;20213;-83
2023/10/13 07:37:41;;;;;;;31.30;22.10;;;;;18.10;97190.00;;;;5102864;28;20256;-83
2023/10/13 07:40:40;;;;;;;27.33;24.67;;;;;18.70;97195.00;;;;5110065;28;20233;-85
2023/10/13 07:43:32;;;;;;;23.03;21.10;;;;;19.00;97204.00;;;;5114245;28;20245;-86
2023/10/13 07:46:29;;;;;;;27.53;25.40;;;;;19.00;97205.00;;;;5110565;28;20230;-85
2023/10/13 07:49:20;;;;;;;33.80;31.63;;;;;18.70;97198.00;;;;5114778;28;20240;-86
2023/10/13 07:52:35;;;;;;;27.27;25.60;;;;;18.20;97196.00;;;;5119872;28;20199;-85
2023/10/13 07:55:25;;;;;;;23.77;21.30;;;;;18.00;97193.00;;;;5112648;28;20236;-83
2023/10/13 07:58:14;;;;;;;26.07;24.23;;;;;18.30;97192.00;;;;5113362;28;20201;-86
2023/10/13 08:01:08;;;;;;;24.70;22.60;;;;;18.50;97183.00;;;;5114390;28;20207;-85
2023/10/13 08:04:11;;;;;;;30.23;27.13;;;;;18.90;97184.00;;;;5107151;28;20271;-85
2023/10/13 08:07:12;;;;;;;26.17;23.80;;;;;19.20;97180.00;;;;5114494;28;20226;-85
2023/10/13 08:10:02;;;;;;;27.83;25.07;;;;;19.60;97182.00;;;;5108061;28;20195;-84
2023/10/13 08:12:52;;;;;;;38.90;35.77;;;;;19.70;97183.00;;;;5115411;28;20190;-84
2023/10/13 08:15:47;;;;;;;47.83;44.47;;;;;20.00;97176.00;;;;5114062;28;20219;-84
2023/10/13 08:18:41;;;;;;;40.77;38.00;;;;;19.90;97178.00;;;;5104283;28;20228;-84
2023/10/13 08:21:31;;;;;;;50.40;47.10;;;;;20.10;97174.00;;;;5097829;28;20211;-85
2023/10/13 08:24:28;;;;;;;50.33;47.40;;;;;20.30;97174.00;;;;5119011;28;20221;-85
2023/10/13 08:27:34;;;;;;;54.33;51.60;;;;;20.50;97177.00;;;;5110962;28;20215;-85
2023/10/13 08:30:30;;;;;;;65.67;61.80;;;;;20.60;97168.00;;;;5108320;28;20223;-85
2023/10/13 08:33:23;;;;;;;65.03;62.40;;;;;20.50;97170.00;;;;5114625;28;20201;-83
2023/10/13 08:36:27;;;;;;;64.17;60.90;;;;;21.00;97167.00;;;;5112184;28;20229;-85
2023/10/13 08:39:58;;;;;;;77.20;73.37;;;;;21.10;97157.00;;;;5115637;28;20207;-84
2023/10/13 08:42:40;;;;;;;84.60;80.30;;;;;21.50;97161.00;;;;5100951;28;20214;-85
2023/10/13 08:48:34;;;;;;;112.93;107.60;;;;;22.20;97168.00;;;;5108827;28;20573;-85
2023/10/13 08:51:43;;;;;;;119.67;113.73;;;;;21.90;97157.00;;;;5101114;28;20204;-84
2023/10/13 08:54:39;;;;;;;121.90;116.47;;;;;22.30;97164.00;;;;5101280;28;20339;-86
2023/10/13 08:57:33;;;;;;;137.33;130.17;;;;;22.60;97166.00;;;;5104277;28;20192;-86
2023/10/13 09:00:28;;;;;;;138.83;132.20;;;;;23.00;97170.00;;;;5104668;28;20226;-84
2023/10/13 09:03:39;;;;;;;137.70;131.83;;;;;23.00;97172.00;;;;5116200;28;20195;-86
2023/10/13 09:06:36;;;;;;;135.03;129.30;;;;;23.30;97173.00;;;;5108561;28;20244;-85
2023/10/13 09:09:34;;;;;;;147.07;140.63;;;;;23.60;97177.00;;;;5093335;28;20218;-85
2023/10/13 09:12:25;;;;;;;149.30;142.53;;;;;23.80;97183.00;;;;5104155;28;20252;-87
2023/10/13 09:15:24;;;;;;;161.57;154.73;;;;;23.90;97174.00;;;;5094753;28;20209;-85
2023/10/13 09:18:15;;;;;;;145.83;139.13;;;;;23.80;97171.00;;;;5108247;28;20212;-86
2023/10/13 09:21:29;;;;;;;169.67;161.90;;;;;24.40;97166.00;;;;5106121;28;20210;-87
2023/10/13 09:24:18;;;;;;;180.03;172.03;;;;;24.80;97159.00;;;;5111016;28;20210;-85
2023/10/13 09:27:12;;;;;;;201.77;192.90;;;;;25.00;97164.00;;;;5107945;28;20249;-85
2023/10/13 09:30:09;;;;;;;209.63;199.50;;;;;25.20;97158.00;;;;5107421;28;20739;-86
2023/10/13 09:33:01;;;;;;;214.83;204.17;;;;;25.10;97162.00;;;;5099569;28;20209;-87
2023/10/13 09:35:50;;;;;;;197.23;188.90;;;;;25.30;97164.00;;;;5102266;28;20213;-86
2023/10/13 09:38:40;;;;;;;212.93;204.13;;;;;25.70;97157.00;;;;5108314;28;20241;-85
2023/10/13 09:41:32;;;;;;;217.27;208.00;;;;;25.70;97160.00;;;;5096146;28;20211;-87
2023/10/13 09:44:22;;;;;;;212.23;203.23;;;;;26.10;97164.00;;;;5100610;28;20204;-87
2023/10/13 09:47:21;;;;;;;214.00;205.10;;;;;26.20;97157.00;;;;5102840;28;20210;-86
2023/10/13 09:50:23;;;;;;;239.30;229.03;;;;;26.10;97156.00;;;;5111074;28;20206;-86
2023/10/13 09:53:14;;;;;;;240.63;229.67;;;;;26.40;97162.00;;;;5102007;28;20199;-85
2023/10/13 09:56:12;;;;;;;221.03;211.30;;;;;26.60;97154.00;;;;5095341;28;20224;-86
2023/10/13 09:59:12;;;;;;;252.17;241.50;;;;;26.70;97156.00;;;;5094619;28;20212;-85
2023/10/13 10:02:08;;;;;;;265.07;253.73;;;;;26.70;97151.00;;;;5099778;28;20203;-85
2023/10/13 10:05:12;;;;;;;280.27;266.93;;;;;27.00;97150.00;;;;5098512;28;20245;-87
2023/10/13 10:08:01;;;;;;;262.40;250.73;;;;;27.10;97146.00;;;;5102640;28;20183;-87
2023/10/13 10:10:57;;;;;;;289.67;276.67;;;;;27.20;97145.00;;;;5097650;28;20242;-86
2023/10/13 10:13:58;;;;;;;284.67;271.90;;;;;27.40;97141.00;;;;5101087;28;20200;-86
2023/10/13 10:16:59;;;;;;;304.13;291.57;;;;;27.50;97139.00;;;;5097790;28;20211;-85
2023/10/13 10:19:53;;;;;;;331.07;315.27;;;;;28.10;97139.00;;;;5099907;28;20492;-84
2023/10/13 10:22:48;;;;;;;378.57;361.57;;;;;28.60;97134.00;;;;5099179;28;20195;-86
2023/10/13 10:25:38;;;;;;;432.90;411.53;;;;;29.00;97134.00;;;;5100914;28;20359;-86
2023/10/13 10:28:37;;;;;;;433.10;412.40;;;;;29.20;97128.00;;;;5105764;28;20209;-85
2023/10/13 10:31:36;;;;;;;462.03;438.97;;;;;29.60;97117.00;;;;5095159;28;20204;-87
2023/10/13 10:34:33;;;;;;;510.17;484.30;;;;;30.00;97123.00;;;;5108237;28;20224;-86
2023/10/13 10:37:25;;;;;;;537.13;509.23;;;;;30.60;97118.00;;;;5103812;28;20319;-84
2023/10/13 10:40:32;;;;;;;549.17;520.70;;;;;29.90;97114.00;;;;5098632;28;20200;-87
2023/10/13 10:43:25;;;;;;;559.10;530.27;;;;;30.40;97111.00;;;;5099400;28;20206;-88
2023/10/13 10:46:26;;;;;;;584.20;553.33;;;;;30.10;97108.00;;;;5086817;28;20608;-85
2023/10/13 10:49:27;;;;;;;596.17;565.30;;;;;30.60;97099.00;;;;5098718;28;20678;-87
2023/10/13 10:52:21;;;;;;;602.75;570.85;;;;;31.20;97092.00;;;;5096306;28;20193;-87
2023/10/13 10:55:13;;;;;;;654.13;618.33;;;;;31.50;97090.00;;;;5101654;28;20206;-87
2023/10/13 10:58:06;;;;;;;679.28;639.75;;;;;32.30;97080.00;;;;5084738;28;20206;-87
2023/10/13 11:01:10;;;;;;;701.80;659.83;;;;;32.60;97076.00;;;;5092294;28;20210;-87
2023/10/13 11:04:07;;;;;;;718.95;675.50;;;;;32.40;97078.00;;;;5103000;28;20220;-88
2023/10/13 11:06:58;;;;;;;724.17;679.50;;;;;32.70;97077.00;;;;5095549;28;20226;-87
2023/10/13 11:09:52;;;;;;;734.50;689.63;;;;;33.10;97064.00;;;;5095051;28;20226;-87
2023/10/13 11:12:43;;;;;;;753.58;705.85;;;;;33.20;97063.00;;;;5096644;28;20210;-83
2023/10/13 11:15:44;;;;;;;762.95;714.38;;;;;33.40;97064.00;;;;5098965;28;20229;-86
2023/10/13 11:18:40;;;;;;;763.97;715.13;;;;;33.90;97062.00;;;;5103407;28;20213;-85
2023/10/13 11:21:31;;;;;;;772.72;722.75;;;;;33.80;97060.00;;;;5099544;28;20203;-84
2023/10/13 11:24:21;;;;;;;777.97;728.10;;;;;34.60;97052.00;;;;5095735;28;20218;-87
2023/10/13 11:27:20;;;;;;;795.13;743.20;;;;;34.40;97061.00;;;;5101334;28;20218;-83
2023/10/13 11:30:13;;;;;;;802.80;750.83;;;;;34.80;97069.00;;;;5106641;28;20207;-84
2023/10/13 11:33:05;;;;;;;812.60;760.72;;;;;34.00;97055.00;;;;5109193;28;20211;-84
2023/10/13 11:35:57;;;;;;;814.25;762.70;;;;;34.90;97048.00;;;;5096848;28;20231;-84
2023/10/13 11:38:49;;;;;;;811.15;759.65;;;;;35.30;97042.00;;;;5102951;28;20215;-84
2023/10/13 11:41:46;;;;;;;822.53;770.10;;;;;35.70;97043.00;;;;5100349;28;20192;-85
2023/10/13 11:44:43;;;;;;;825.72;771.70;;;;;35.60;97041.00;;;;5103100;28;20747;-85
2023/10/13 11:47:47;;;;;;;838.97;783.28;;;;;35.60;97030.00;;;;5101049;28;20225;-84
2023/10/13 11:50:41;;;;;;;838.75;783.20;;;;;36.10;97030.00;;;;5098836;28;20203;-85
2023/10/13 11:53:30;;;;;;;;;;;;;35.80;97023.00;;;;5106108;28;20056;-85
2023/10/13 11:56:20;;;;;;;;;;;;;36.30;97021.00;;;;5106835;28;19924;-84
2023/10/13 11:59:16;;;;;;;;;;;;;36.80;97024.00;;;;5105362;28;19916;-84
2023/10/13 12:05:17;;;;;;;849.33;793.25;;;;;37.00;97008.00;;;;5089210;28;20277;-84
2023/10/13 12:08:19;;;;;;;865.97;808.35;;;;;36.90;97010.00;;;;5091756;28;20239;-84
2023/10/13 12:14:19;;;;;;;871.28;814.55;;;;;37.70;96997.00;;;;5100373;28;20207;-84
2023/10/13 12:17:11;;;;;;;1056.85;994.10;;;;;37.30;96986.00;;;;5108279;28;20375;-84
2023/10/13 12:20:04;;;;;;;919.78;860.78;;;;;37.70;96987.00;;;;5104576;28;20211;-83
2023/10/13 12:22:55;;;;;;;897.30;839.95;;;;;38.30;96983.00;;;;5095336;28;20203;-83
2023/10/13 12:26:06;;;;;;;900.90;842.67;;;;;38.50;96986.00;;;;5094337;28;20224;-83
2023/10/13 12:29:05;;;;;;;899.33;841.25;;;;;38.30;96980.00;;;;5103578;28;20220;-85
2023/10/13 12:32:07;;;;;;;901.33;843.55;;;;;38.80;96977.00;;;;5103397;28;20583;-84
2023/10/13 12:35:00;;;;;;;902.67;844.83;;;;;38.50;96984.00;;;;5095655;28;20199;-84
2023/10/13 12:37:52;;;;;;;905.17;847.80;;;;;38.50;96977.00;;;;5093778;28;20214;-85
2023/10/13 12:50:14;;;;;;;914.83;856.53;;;;;39.20;96963.00;;;;5097518;28;20210;-86
2023/10/13 12:53:03;;;;;;;916.38;857.90;;;;;38.80;96963.00;;;;5098132;28;20637;-82
2023/10/13 12:55:52;;;;;;;913.38;855.85;;;;;39.30;96956.00;;;;5097141;28;20314;-83
2023/10/13 12:58:42;;;;;;;913.35;856.30;;;;;39.70;96950.00;;;;5093971;28;20213;-84
2023/10/13 13:01:34;;;;;;;912.83;855.85;;;36.20;50.20;40.30;96953.00;;;;5106302;28;20225;-84
2023/10/13 13:04:23;;;;;;;927.08;869.50;;;36.10;50.50;39.90;96949.00;;;;5098599;28;20195;-84
2023/10/13 13:07:14;;;;;;;923.33;866.35;;;36.50;49.00;40.70;96948.00;;;;5089715;28;20238;-84
2023/10/13 13:10:03;;;;;;;935.45;876.88;;;36.70;49.90;40.30;96946.00;;;;5089128;28;20203;-83
2023/10/13 13:12:51;;;;;;;;;;;36.90;49.60;41.00;96948.00;;;;5091668;28;20516;-85
2023/10/13 13:15:40;;;;;;;;;;;37.20;49.70;40.70;96944.00;;;;5097182;28;20405;-84
2023/10/13 13:18:29;;;;;;;;;;;37.10;48.30;40.00;96943.00;;;;5095476;28;19928;-84
2023/10/13 13:21:22;;;;;;;;;;;37.10;48.30;40.30;96945.00;;;;5102097;28;19920;-85
2023/10/13 13:24:13;;;;;;;;;;;36.90;49.30;41.00;96938.00;;;;5088529;28;19928;-84
2023/10/13 13:27:05;;;;;;;;;;;37.10;49.60;40.70;96945.00;;;;5097600;28;19924;-84
2023/10/13 13:29:54;;;;;;;1084.28;999.90;;;37.40;58.10;39.90;96952.00;;;;5088142;28;20419;-83
2023/10/13 13:32:45;;;;;;;957.38;899.20;;;37.20;48.20;39.00;96954.00;;;;5094119;28;20210;-83
2023/10/13 13:35:35;;;;;;;938.40;880.15;;;;;39.20;96945.00;;;;5085017;28;20227;-83
2023/10/13 13:38:27;;;;;;;937.95;880.60;;;36.20;47.90;38.80;96946.00;;;;5094793;28;20221;-82
2023/10/13 13:41:18;;;;;;;928.20;871.05;;;36.00;48.40;39.20;96932.00;;;;5090196;28;20248;-83
2023/10/13 13:44:14;;;;;;;934.90;876.55;;;35.90;47.40;39.00;96937.00;;;;5094976;28;20246;-82
2023/10/13 13:47:10;;;;;;;932.22;872.08;;;35.80;61.30;38.60;96934.00;;;;5091589;28;20238;-82
2023/10/13 13:50:05;;;;;;;939.40;880.28;;;35.70;46.70;39.00;96937.00;;;;5099296;28;20198;-82
2023/10/13 13:52:56;;;;;;;939.75;880.58;;;35.70;47.20;38.90;96938.00;;;;5097697;28;20622;-81
2023/10/13 13:55:45;;;;;;;936.88;878.15;;;35.70;45.30;38.70;96929.00;;;;5095786;28;20215;-83
2023/10/13 13:58:38;;;;;;;928.40;870.55;;;35.60;45.20;37.30;96940.00;;;;5097023;28;20214;-83
2023/10/13 14:01:28;;;;;;;920.97;863.50;;;;;38.10;96940.00;;;;5101124;28;20200;-83
2023/10/13 14:04:52;;;;;;;916.83;859.42;;;;;36.90;96948.00;;;;5098391;28;20207;-82
2023/10/13 14:07:42;;;;;;;914.38;856.42;;;;;36.40;96943.00;;;;5105593;28;20233;-83
2023/10/13 14:11:13;;;;;;;907.05;849.63;;;;;37.00;96932.00;;;;5107714;28;20603;-83
2023/10/13 14:13:49;;;;;;;903.40;845.20;;;;;36.80;96935.00;;;;5088036;28;20836;-83
2023/10/13 14:16:44;;;;;;;891.13;833.58;;;;;36.50;96934.00;;;;5095966;28;20222;-83
2023/10/13 14:19:33;;;;;;;883.80;827.88;;;;;36.90;96929.00;;;;5089428;28;20301;-84
2023/10/13 14:22:24;;;;;;;884.65;829.85;;;;;37.10;96915.00;;;;5085849;28;20555;-83
2023/10/13 14:25:14;;;;;;;884.08;829.58;;;;;37.50;96919.00;;;;5098174;28;20228;-83
2023/10/13 14:28:03;;;;;;;895.38;840.45;;;;;37.90;96916.00;;;;5101739;28;20203;-83
2023/10/13 14:30:53;;;;;;;893.50;839.67;;;;;38.40;96912.00;;;;5094472;28;20296;-83
2023/10/13 14:33:42;;;;;;;904.08;850.33;;;34.60;47.00;38.30;96902.00;;;;5091467;28;20199;-84
2023/10/13 14:36:34;;;;;;;905.75;852.25;;;34.70;47.20;38.30;96907.00;;;;5099183;28;20247;-84
2023/10/13 14:39:29;;;;;;;905.08;851.80;;;35.00;47.00;38.10;96911.00;;;;5094422;28;20223;-85
2023/10/13 14:42:22;;;;;;;913.10;859.88;;;35.00;48.40;38.20;96910.00;;;;5088978;28;20198;-85
2023/10/13 14:45:13;;;;;;;919.95;865.83;;;35.20;47.40;38.60;96906.00;;;;5093392;28;20209;-84
2023/10/13 14:48:05;;;;;;;919.05;865.03;;;35.30;47.90;38.30;96909.00;;;;5098606;28;20207;-84
2023/10/13 14:50:54;;;;;;;916.15;862.75;;;35.40;48.10;38.60;96902.00;;;;5106060;28;20202;-84
2023/10/13 14:53:43;;;;;;;905.28;853.42;;;35.50;47.80;35.60;96899.00;;;;5106461;28;20243;-85
2023/10/13 14:56:32;;;;;;;885.75;835.92;;;35.30;48.70;36.10;96903.00;;;;5108464;28;20231;-85
2023/10/13 14:59:22;;;;;;;878.20;828.75;;;34.30;49.70;36.90;96905.00;;;;5104167;28;20245;-84
2023/10/13 15:02:10;;;;;;;875.97;826.38;;;34.10;50.40;36.50;96911.00;;;;5111937;28;20210;-85
2023/10/13 15:05:02;;;;;;;860.05;811.50;;;33.80;50.10;36.50;96908.00;;;;5100060;28;20209;-84
2023/10/13 15:07:51;;;;;;;840.25;794.15;;;33.70;50.80;35.30;96923.00;;;;5100929;28;20211;-85
2023/10/13 15:10:40;;;;;;;844.03;797.47;;;;;31.90;96943.00;;;;5101710;28;20867;-83
2023/10/13 15:13:30;;;;;;;811.75;767.58;;;;;29.50;96938.00;;;;5108004;28;20258;-84
2023/10/13 15:16:21;;;;;;;812.88;766.78;;;;;28.30;96937.00;;;;5105736;28;20219;-86
2023/10/13 15:19:12;;;;;;;761.38;718.08;;;;;28.60;96942.00;;;;5104358;28;20309;-87
2023/10/13 15:22:02;;;;;;;689.85;652.65;;;;;27.00;96941.00;;;;5105659;28;20202;-85
2023/10/13 15:25:08;;;;;;;562.10;535.25;;;;;26.10;96943.00;;;;5108754;28;20208;-86
2023/10/13 15:28:02;;;;;;;514.43;490.10;;;;;26.20;96931.00;;;;5111853;28;20355;-84
2023/10/13 15:30:56;;;;;;;460.67;439.97;;;;;25.80;96931.00;;;;5108407;28;20209;-86
2023/10/13 15:33:54;;;;;;;448.63;428.03;;;;;25.20;96928.00;;;;5099711;28;20206;-85
2023/10/13 15:36:43;;;;;;;426.63;406.50;;;;;25.00;96928.00;;;;5089531;28;20232;-84
2023/10/13 15:39:36;;;;;;;415.50;396.20;;;;;24.50;96929.00;;;;5102467;28;20230;-86